Observations for CONINGSBY RAF, United Kingdom (EGXC)

EGXC 250250Z 25007KT CAVOK 01/00 Q1011 BLU  
EGXC 250150Z 25005KT CAVOK 02/00 Q1011 BLU  
EGXC 250050Z 26006KT CAVOK 02/M00 Q1011 BLU 
EGXC 242350Z AUTO 24007KT 9999 // FEW080/// BKN110/// 00/M01 Q1011  
EGXC 242250Z 24007KT CAVOK M00/M02 Q1011 BLU
EGXC 242150Z 23007KT CAVOK 01/M01 Q1011 BLU 
EGXC 242050Z 23006KT CAVOK 00/M02 Q1011 BLU 
EGXC 241950Z 23006KT CAVOK 00/M02 Q1011 BLU 
EGXC 241850Z 20005KT CAVOK 01/M01 Q1011 BLU 
EGXC 241750Z 21006KT CAVOK 02/M00 Q1011 BLU 
EGXC 241650Z 22008KT CAVOK 03/00 Q1011 BLU  
EGXC 241550Z 23006KT CAVOK 04/01 Q1010 BLU  
EGXC 241450Z 26008KT CAVOK 07/02 Q1010 BLU  
EGXC 241350Z 27009KT CAVOK 08/01 Q1010 BLU NOSIG
EGXC 241250Z 26009KT CAVOK 08/01 Q1010 BLU NOSIG
EGXC 241150Z 25008KT CAVOK 07/02 Q1010 BLU NOSIG
EGXC 241050Z 25009KT CAVOK 06/02 Q1010 BLU NOSIG
EGXC 240950Z 24008KT CAVOK 05/01 Q1009 BLU NOSIG
EGXC 240850Z 26007KT CAVOK 03/01 Q1009 BLU NOSIG
EGXC 240750Z 25008KT CAVOK 02/00 Q1008 BLU NOSIG
EGXC 240650Z 25007KT CAVOK 02/01 Q1007 BLU NOSIG
EGXC 240550Z 25006KT CAVOK 02/01 Q1007 BLU  
EGXC 240450Z 26005KT CAVOK 03/01 Q1006 BLU  
EGXC 240350Z 27003KT CAVOK 04/02 Q1005 BLU  
EGXC 240250Z 26005KT CAVOK 04/02 Q1005 BLU